createdAt,value
2023-04-20T00:01:58.813Z,99787.78
2023-04-20T00:04:26.609Z,99783.50
2023-04-20T00:06:54.136Z,99790.38
2023-04-20T00:09:21.552Z,99783.34
2023-04-20T00:11:49.529Z,99785.03
2023-04-20T00:14:16.985Z,99785.38
2023-04-20T00:16:44.471Z,99782.78
2023-04-20T00:19:12.841Z,99780.97
2023-04-20T00:21:40.241Z,99772.19
2023-04-20T00:24:07.778Z,99775.56
2023-04-20T00:26:35.456Z,99783.28
2023-04-20T00:29:03.601Z,99776.22
2023-04-20T00:31:31.919Z,99769.31
2023-04-20T00:33:59.666Z,99771.97
2023-04-20T00:36:27.614Z,99771.97
2023-04-20T00:38:55.034Z,99772.78
2023-04-20T00:41:22.999Z,99770.44
2023-04-20T00:43:54.343Z,99773.91
2023-04-20T00:46:22.139Z,99769.41
2023-04-20T00:48:53.890Z,99774.75
2023-04-20T00:51:22.352Z,99777.16
2023-04-20T00:53:50.074Z,99775.47
2023-04-20T00:56:19.226Z,99772.75
2023-04-20T00:58:46.730Z,99766.44
2023-04-20T01:01:17.678Z,99771.97
2023-04-20T01:03:46.938Z,99773.59
2023-04-20T01:06:15.469Z,99773.63
2023-04-20T01:08:47.729Z,99771.87
2023-04-20T01:11:15.328Z,99774.47
2023-04-20T01:13:43.249Z,99772.78
2023-04-20T01:16:11.956Z,99774.66
2023-04-20T01:18:51.074Z,99773.63
2023-04-20T01:21:22.204Z,99778.81
2023-04-20T01:23:50.425Z,99777.22
2023-04-20T01:26:18.766Z,99774.31
2023-04-20T01:28:46.695Z,99774.13
2023-04-20T01:31:16.555Z,99773.31
2023-04-20T01:33:44.109Z,99776.66
2023-04-20T01:36:12.675Z,99767.94
2023-04-20T01:38:40.660Z,99767.06
2023-04-20T01:41:09.484Z,99774.94
2023-04-20T01:43:37.856Z,99776.72
2023-04-20T01:46:06.263Z,99774.22
2023-04-20T01:48:34.352Z,99775.25
2023-04-20T01:51:01.875Z,99770.00
2023-04-20T01:53:29.630Z,99769.12
2023-04-20T01:55:57.030Z,99771.66
2023-04-20T01:58:24.682Z,99779.53
2023-04-20T02:00:52.438Z,99772.53
2023-04-20T02:03:20.352Z,99771.00
2023-04-20T02:05:48.011Z,99779.53
2023-04-20T02:08:15.438Z,99782.19
2023-04-20T02:10:43.200Z,99772.75
2023-04-20T02:13:11.653Z,99771.09
2023-04-20T02:15:39.523Z,99763.25
2023-04-20T02:18:07.235Z,99774.66
2023-04-20T02:20:34.893Z,99776.41
2023-04-20T02:23:02.280Z,99776.44
2023-04-20T02:25:30.053Z,99779.94
2023-04-20T02:27:57.547Z,99779.09
2023-04-20T02:30:24.986Z,99773.88
2023-04-20T02:32:52.788Z,99772.19
2023-04-20T02:35:20.255Z,99771.38
2023-04-20T02:37:47.752Z,99772.16
2023-04-20T02:40:15.464Z,99775.59
2023-04-20T02:42:42.935Z,99774.78
2023-04-20T02:45:11.132Z,99773.88
2023-04-20T02:47:39.510Z,99775.62
2023-04-20T02:50:07.794Z,99773.06
2023-04-20T02:52:36.793Z,99778.31
2023-04-20T02:55:05.214Z,99780.94
2023-04-20T02:57:32.780Z,99779.25
2023-04-20T03:00:01.504Z,99777.50
2023-04-20T03:02:31.402Z,99786.19
2023-04-20T03:04:59.081Z,99782.63
2023-04-20T03:07:26.772Z,99780.91
2023-04-20T03:09:54.487Z,99782.63
2023-04-20T03:12:22.490Z,99776.62
2023-04-20T03:14:50.212Z,99783.59
2023-04-20T03:17:18.975Z,99778.31
2023-04-20T03:19:46.746Z,99779.31
2023-04-20T03:22:14.250Z,99777.50
2023-04-20T03:24:43.209Z,99779.28
2023-04-20T03:27:11.414Z,99781.88
2023-04-20T03:29:40.335Z,99781.88
2023-04-20T03:32:08.197Z,99783.66
2023-04-20T03:34:35.772Z,99782.78
2023-04-20T03:37:03.746Z,99785.38
2023-04-20T03:39:31.447Z,99783.75
2023-04-20T03:41:59.207Z,99788.09
2023-04-20T03:44:26.625Z,99802.94
2023-04-20T03:46:54.298Z,99796.03
2023-04-20T03:49:23.528Z,99794.28
2023-04-20T03:51:51.521Z,99801.16
2023-04-20T03:54:19.192Z,99804.66
2023-04-20T03:56:49.619Z,99807.31
2023-04-20T03:59:17.786Z,99809.91
2023-04-20T04:01:46.355Z,99815.12
2023-04-20T04:04:14.314Z,99808.16
2023-04-20T04:06:42.123Z,99805.59
2023-04-20T04:09:09.517Z,99811.66
2023-04-20T04:11:37.263Z,99805.56
2023-04-20T04:14:05.246Z,99809.06
2023-04-20T04:16:33.122Z,99813.38
2023-04-20T04:19:00.974Z,99809.91
2023-04-20T04:21:28.871Z,99806.47
2023-04-20T04:23:56.476Z,99803.00
2023-04-20T04:26:24.839Z,99805.56
2023-04-20T04:28:52.640Z,99803.00
2023-04-20T04:31:21.544Z,99802.97
2023-04-20T04:33:49.765Z,99809.87
2023-04-20T04:36:18.169Z,99805.59
2023-04-20T04:38:46.107Z,99802.94
2023-04-20T04:41:13.977Z,99809.03
2023-04-20T04:43:42.284Z,99813.34
2023-04-20T04:46:10.983Z,99814.25
2023-04-20T04:48:40.677Z,99813.34
2023-04-20T04:51:11.185Z,99815.91
2023-04-20T04:53:38.923Z,99811.50
2023-04-20T04:56:06.917Z,99821.03
2023-04-20T04:58:34.432Z,99823.66
2023-04-20T05:01:02.170Z,99821.97
2023-04-20T05:03:29.764Z,99817.59
2023-04-20T05:05:57.343Z,99818.44
2023-04-20T05:08:25.092Z,99824.44
2023-04-20T05:10:52.590Z,99819.94
2023-04-20T05:13:20.446Z,99817.34
2023-04-20T05:15:48.478Z,99820.59
2023-04-20T05:18:15.959Z,99826.66
2023-04-20T05:20:43.381Z,99818.69
2023-04-20T05:23:11.165Z,99828.19
2023-04-20T05:25:38.738Z,99816.03
2023-04-20T05:28:06.640Z,99820.28
2023-04-20T05:30:34.481Z,99819.22
2023-04-20T05:33:01.918Z,99821.78
2023-04-20T05:35:29.688Z,99827.66
2023-04-20T05:38:00.309Z,99825.03
2023-04-20T05:40:27.920Z,99828.38
2023-04-20T05:42:55.517Z,99828.38
2023-04-20T05:45:23.455Z,99830.72
2023-04-20T05:47:54.844Z,99832.53
2023-04-20T05:50:23.705Z,99833.19
2023-04-20T05:52:52.005Z,99837.56
2023-04-20T05:55:22.193Z,99840.87
2023-04-20T05:57:52.379Z,99834.44
2023-04-20T06:00:20.344Z,99831.59
2023-04-20T06:02:48.285Z,99833.94
2023-04-20T06:05:16.037Z,99835.22
2023-04-20T06:07:43.444Z,99835.53
2023-04-20T06:10:11.678Z,99835.94
2023-04-20T06:12:39.329Z,99841.19
2023-04-20T06:15:09.872Z,99836.03
2023-04-20T06:17:40.436Z,99839.81
2023-04-20T06:20:10.193Z,99840.13
2023-04-20T06:22:43.387Z,99840.69
2023-04-20T06:25:11.389Z,99840.41
2023-04-20T06:27:39.486Z,99839.66
2023-04-20T06:30:07.648Z,99841.28
2023-04-20T06:32:35.098Z,99842.66
2023-04-20T06:35:04.134Z,99840.81
2023-04-20T06:37:31.568Z,99836.53
2023-04-20T06:39:58.938Z,99848.81
2023-04-20T06:42:27.194Z,99847.25
2023-04-20T06:44:57.545Z,99841.87
2023-04-20T06:47:31.408Z,99840.47
2023-04-20T06:50:00.456Z,99851.00
2023-04-20T06:52:28.197Z,99842.00
2023-04-20T06:54:55.605Z,99838.16
2023-04-20T06:57:23.395Z,99844.78
2023-04-20T06:59:50.821Z,99842.66
2023-04-20T07:02:18.279Z,99844.69
2023-04-20T07:04:46.024Z,99848.75
2023-04-20T07:07:13.445Z,99844.66
2023-04-20T07:09:40.809Z,99841.78
2023-04-20T07:12:09.249Z,99839.88
2023-04-20T07:14:36.773Z,99833.72
2023-04-20T07:17:04.209Z,99840.53
2023-04-20T07:19:32.658Z,99841.53
2023-04-20T07:22:00.099Z,99841.22
2023-04-20T07:24:29.016Z,99839.66
2023-04-20T07:26:57.189Z,99844.19
2023-04-20T07:29:24.646Z,99842.09
2023-04-20T07:31:52.063Z,99841.16
2023-04-20T07:34:19.958Z,99842.47
2023-04-20T07:36:47.483Z,99842.50
2023-04-20T07:39:16.279Z,99841.69
2023-04-20T07:41:44.219Z,99839.16
2023-04-20T07:44:13.780Z,99846.09
2023-04-20T07:46:41.833Z,99837.91
2023-04-20T07:49:09.571Z,99844.44
2023-04-20T07:51:36.957Z,99841.59
2023-04-20T07:54:04.537Z,99847.38
2023-04-20T07:56:32.279Z,99840.53
2023-04-20T07:58:59.698Z,99843.50
2023-04-20T08:01:27.290Z,99838.28
2023-04-20T08:03:56.121Z,99840.34
2023-04-20T08:06:23.777Z,99837.50
2023-04-20T08:08:51.305Z,99842.00
2023-04-20T08:11:19.155Z,99834.37
2023-04-20T08:13:46.540Z,99836.22
2023-04-20T08:16:13.975Z,99840.41
2023-04-20T08:18:42.483Z,99845.19
2023-04-20T08:21:10.261Z,99838.09
2023-04-20T08:23:37.778Z,99838.81
2023-04-20T08:26:05.554Z,99843.84
2023-04-20T08:28:34.231Z,99836.66
2023-04-20T08:31:02.015Z,99834.59
2023-04-20T08:33:30.102Z,99832.69
2023-04-20T08:35:57.519Z,99833.87
2023-04-20T08:38:33.814Z,99831.56
2023-04-20T08:41:02.409Z,99835.28
2023-04-20T08:43:29.967Z,99832.47
2023-04-20T08:45:59.839Z,99828.59
2023-04-20T08:48:34.247Z,99826.22
2023-04-20T08:51:02.449Z,99831.16
2023-04-20T08:53:31.500Z,99825.56
2023-04-20T08:55:59.495Z,99827.00
2023-04-20T08:58:34.487Z,99829.78
2023-04-20T09:01:02.209Z,99823.34
2023-04-20T09:03:43.044Z,99827.59
2023-04-20T09:06:18.003Z,99825.53
2023-04-20T09:08:46.671Z,99824.13
2023-04-20T09:11:28.314Z,99819.28
2023-04-20T09:14:06.478Z,99824.28
2023-04-20T09:16:37.593Z,99819.25
2023-04-20T09:19:06.486Z,99831.00
2023-04-20T09:21:35.120Z,99824.00
2023-04-20T09:24:09.293Z,99814.97
2023-04-20T09:26:37.015Z,99818.81
2023-04-20T09:29:04.946Z,99815.72
2023-04-20T09:31:32.380Z,99819.97
2023-04-20T09:34:01.947Z,99818.66
2023-04-20T09:36:37.409Z,99812.69
2023-04-20T09:39:08.204Z,99819.25
2023-04-20T09:41:36.207Z,99817.47
2023-04-20T09:44:04.666Z,99807.50
2023-04-20T09:46:34.192Z,99813.03
2023-04-20T09:49:04.771Z,99806.53
2023-04-20T09:51:35.338Z,99811.84
2023-04-20T09:54:04.297Z,99806.12
2023-04-20T09:56:33.436Z,99807.81
2023-04-20T09:59:02.175Z,99811.84
2023-04-20T10:01:31.553Z,99814.41
2023-04-20T10:04:00.676Z,99803.09
2023-04-20T10:06:34.608Z,99807.47
2023-04-20T10:09:05.456Z,99796.41
2023-04-20T10:11:41.084Z,99799.53
2023-04-20T10:14:24.218Z,99806.94
2023-04-20T10:17:06.652Z,99798.81
2023-04-20T10:19:44.893Z,99803.87
2023-04-20T10:22:14.518Z,99806.62
2023-04-20T10:24:42.218Z,99798.25
2023-04-20T10:27:17.708Z,99796.91
2023-04-20T10:29:45.619Z,99801.06
2023-04-20T10:32:26.394Z,99798.34
2023-04-20T10:35:02.300Z,99800.53
2023-04-20T10:37:29.914Z,99791.41
2023-04-20T10:39:58.197Z,99794.22
2023-04-20T10:42:26.592Z,99784.09
2023-04-20T10:44:54.554Z,99779.84
2023-04-20T10:47:34.231Z,99781.00
2023-04-20T10:50:12.466Z,99785.19
2023-04-20T10:52:42.054Z,99774.03
2023-04-20T10:55:20.384Z,99774.19
2023-04-20T10:57:48.738Z,99767.78
2023-04-20T11:00:21.967Z,99768.56
2023-04-20T11:02:51.742Z,99766.38
2023-04-20T11:05:20.526Z,99769.00
2023-04-20T11:07:52.514Z,99768.94
2023-04-20T11:10:21.253Z,99759.91
2023-04-20T11:12:49.149Z,99769.97
2023-04-20T11:15:16.662Z,99759.59
2023-04-20T11:17:45.064Z,99760.47
2023-04-20T11:20:14.501Z,99762.91
2023-04-20T11:22:42.929Z,99760.97
2023-04-20T11:25:12.502Z,99750.78
2023-04-20T11:27:40.885Z,99755.06
2023-04-20T11:30:09.048Z,99757.56
2023-04-20T11:32:38.133Z,99755.50
2023-04-20T11:35:08.223Z,99749.25
2023-04-20T11:37:51.584Z,99750.84
2023-04-20T11:40:19.635Z,99747.50
2023-04-20T11:42:47.210Z,99744.47
2023-04-20T11:45:14.639Z,99739.47
2023-04-20T11:47:42.336Z,99743.72
2023-04-20T11:50:11.142Z,99739.00
2023-04-20T11:52:38.683Z,99745.44
2023-04-20T11:55:07.038Z,99742.28
2023-04-20T11:57:34.719Z,99741.87
2023-04-20T12:00:02.561Z,99745.91
2023-04-20T12:02:41.573Z,99744.84
2023-04-20T12:05:09.745Z,99747.75
2023-04-20T12:07:37.340Z,99748.69
2023-04-20T12:10:05.395Z,99741.28
2023-04-20T12:12:34.013Z,99747.59
2023-04-20T12:15:01.633Z,99739.97
2023-04-20T12:17:29.070Z,99740.31
2023-04-20T12:19:57.890Z,99740.09
2023-04-20T12:22:25.438Z,99742.59
2023-04-20T12:24:52.997Z,99730.78
2023-04-20T12:27:20.652Z,99735.53
2023-04-20T12:29:48.025Z,99738.81
2023-04-20T12:32:15.417Z,99734.91
2023-04-20T12:34:43.089Z,99732.91
2023-04-20T12:37:11.045Z,99729.19
2023-04-20T12:39:38.493Z,99730.56
2023-04-20T12:42:06.438Z,99726.72
2023-04-20T12:44:33.869Z,99722.03
2023-04-20T12:47:01.361Z,99723.12
2023-04-20T12:49:29.147Z,99718.75
2023-04-20T12:51:56.881Z,99714.66
2023-04-20T12:54:24.258Z,99720.47
2023-04-20T12:56:52.026Z,99722.03
2023-04-20T12:59:19.433Z,99720.03
2023-04-20T13:01:47.015Z,99716.41
2023-04-20T13:04:16.135Z,99719.81
2023-04-20T13:06:43.887Z,99710.75
2023-04-20T13:09:11.485Z,99709.25
2023-04-20T13:11:39.235Z,99705.69
2023-04-20T13:14:06.708Z,99701.94
2023-04-20T13:16:34.256Z,99702.22
2023-04-20T13:19:02.777Z,99704.66
2023-04-20T13:21:30.278Z,99703.13
2023-04-20T13:23:57.702Z,99697.50
2023-04-20T13:26:25.776Z,99692.00
2023-04-20T13:28:54.175Z,99699.16
2023-04-20T13:31:21.736Z,99693.50
2023-04-20T13:33:54.315Z,99695.81
2023-04-20T13:36:23.735Z,99694.94
2023-04-20T13:38:55.740Z,99702.81
2023-04-20T13:41:25.919Z,99696.72
2023-04-20T13:43:53.681Z,99701.06
2023-04-20T13:46:21.386Z,99697.09
2023-04-20T13:48:48.821Z,99696.44
2023-04-20T13:51:16.484Z,99691.06
2023-04-20T13:53:44.039Z,99697.44
2023-04-20T13:56:11.397Z,99688.44
2023-04-20T13:58:39.065Z,99678.75
2023-04-20T14:01:11.846Z,99682.19
2023-04-20T14:03:39.627Z,99678.19
2023-04-20T14:06:07.120Z,99678.44
2023-04-20T14:08:34.558Z,99669.31
2023-04-20T14:11:02.323Z,99671.91
2023-04-20T14:13:29.743Z,99674.59
2023-04-20T14:15:57.378Z,99674.19
2023-04-20T14:18:25.199Z,99671.03
2023-04-20T14:20:52.619Z,99667.94
2023-04-20T14:23:20.031Z,99670.09
2023-04-20T14:25:47.724Z,99660.81
2023-04-20T14:28:16.751Z,99654.06
2023-04-20T14:30:45.662Z,99658.81
2023-04-20T14:33:13.612Z,99647.09
2023-04-20T14:35:41.169Z,99650.81
2023-04-20T14:38:08.648Z,99646.50
2023-04-20T14:40:36.382Z,99642.63
2023-04-20T14:43:03.863Z,99645.72
2023-04-20T14:45:31.304Z,99648.59
2023-04-20T14:47:59.079Z,99649.63
2023-04-20T14:50:27.529Z,99640.44
2023-04-20T14:52:55.703Z,99635.06
2023-04-20T14:55:25.697Z,99644.13
2023-04-20T14:57:57.477Z,99638.97
2023-04-20T15:00:25.832Z,99640.00
2023-04-20T15:02:53.824Z,99638.50
2023-04-20T15:05:22.255Z,99637.75
2023-04-20T15:07:50.850Z,99633.63
2023-04-20T15:10:19.366Z,99629.94
2023-04-20T15:12:47.559Z,99626.69
2023-04-20T15:15:16.112Z,99634.50
2023-04-20T15:17:45.929Z,99633.38
2023-04-20T15:20:15.314Z,99632.78
2023-04-20T15:22:43.051Z,99636.91
2023-04-20T15:25:10.533Z,99635.06
2023-04-20T15:27:38.112Z,99632.91
2023-04-20T15:30:06.557Z,99642.03
2023-04-20T15:32:34.157Z,99639.25
2023-04-20T15:35:01.999Z,99637.47
2023-04-20T15:37:29.753Z,99646.81
2023-04-20T15:39:59.096Z,99633.91
2023-04-20T15:42:27.429Z,99638.25
2023-04-20T15:44:55.328Z,99633.09
2023-04-20T15:47:22.756Z,99638.38
2023-04-20T15:49:50.182Z,99638.41
2023-04-20T15:52:17.921Z,99635.63
2023-04-20T15:54:47.225Z,99634.66
2023-04-20T15:57:14.669Z,99634.50
2023-04-20T15:59:42.416Z,99634.19
2023-04-20T16:02:09.852Z,99633.63
2023-04-20T16:04:37.781Z,99638.53
2023-04-20T16:07:05.402Z,99630.44
2023-04-20T16:09:33.117Z,99634.66
2023-04-20T16:12:05.332Z,99627.94
2023-04-20T16:14:32.826Z,99627.16
2023-04-20T16:17:03.346Z,99631.31
2023-04-20T16:19:31.639Z,99632.09
2023-04-20T16:21:59.122Z,99626.16
2023-04-20T16:24:26.588Z,99631.31
2023-04-20T16:26:55.847Z,99629.03
2023-04-20T16:29:23.293Z,99630.03
2023-04-20T16:31:50.835Z,99625.47
2023-04-20T16:34:18.863Z,99639.72
2023-04-20T16:36:46.465Z,99639.78
2023-04-20T16:39:13.987Z,99641.78
2023-04-20T16:41:41.703Z,99651.59
2023-04-20T16:44:09.089Z,99646.69
2023-04-20T16:46:36.593Z,99648.06
2023-04-20T16:49:04.436Z,99657.50
2023-04-20T16:51:32.497Z,99663.22
2023-04-20T16:54:02.742Z,99663.41
2023-04-20T16:56:30.465Z,99669.94
2023-04-20T16:58:58.264Z,99666.94
2023-04-20T17:01:25.709Z,99663.50
2023-04-20T17:03:53.650Z,99662.62
2023-04-20T17:06:21.174Z,99664.63
2023-04-20T17:08:50.206Z,99665.34
2023-04-20T17:11:19.434Z,99670.63
2023-04-20T17:13:46.887Z,99671.16
2023-04-20T17:16:14.342Z,99674.22
2023-04-20T17:18:42.174Z,99683.84
2023-04-20T17:21:09.589Z,99678.22
2023-04-20T17:23:37.081Z,99683.50
2023-04-20T17:26:04.834Z,99682.31
2023-04-20T17:28:32.280Z,99682.38
2023-04-20T17:30:59.684Z,99691.34
2023-04-20T17:33:27.393Z,99691.34
2023-04-20T17:35:56.857Z,99693.19
2023-04-20T17:38:24.694Z,99701.44
2023-04-20T17:40:52.382Z,99708.22
2023-04-20T17:43:19.840Z,99707.66
2023-04-20T17:45:50.666Z,99707.12
2023-04-20T17:48:18.416Z,99706.53
2023-04-20T17:50:49.716Z,99715.19
2023-04-20T17:53:17.211Z,99711.37
2023-04-20T17:55:44.940Z,99722.81
2023-04-20T17:58:12.975Z,99709.34
2023-04-20T18:00:40.472Z,99722.81
2023-04-20T18:03:08.248Z,99716.41
2023-04-20T18:05:35.802Z,99725.41
2023-04-20T18:08:03.259Z,99720.38
2023-04-20T18:10:32.057Z,99720.00
2023-04-20T18:12:59.738Z,99724.56
2023-04-20T18:15:27.331Z,99732.81
2023-04-20T18:17:55.333Z,99728.59
2023-04-20T18:20:22.825Z,99732.25
2023-04-20T18:22:50.603Z,99738.06
2023-04-20T18:25:19.479Z,99739.97
2023-04-20T18:27:46.929Z,99753.09
2023-04-20T18:30:14.902Z,99755.81
2023-04-20T18:32:42.672Z,99765.69
2023-04-20T18:35:11.008Z,99764.63
2023-04-20T18:37:38.511Z,99766.03
2023-04-20T18:40:07.329Z,99757.97
2023-04-20T18:42:34.790Z,99761.31
2023-04-20T18:45:02.193Z,99763.97
2023-04-20T18:47:29.961Z,99776.47
2023-04-20T18:49:57.704Z,99772.16
2023-04-20T18:52:25.365Z,99777.81
2023-04-20T18:54:55.306Z,99780.41
2023-04-20T18:57:26.159Z,99784.53
2023-04-20T18:59:56.872Z,99776.72
2023-04-20T19:02:24.918Z,99778.75
2023-04-20T19:04:52.738Z,99782.22
2023-04-20T19:07:20.524Z,99782.00
2023-04-20T19:09:47.918Z,99791.94
2023-04-20T19:12:15.474Z,99790.72
2023-04-20T19:14:43.190Z,99789.78
2023-04-20T19:17:10.718Z,99792.25
2023-04-20T19:19:38.228Z,99793.91
2023-04-20T19:22:06.158Z,99796.69
2023-04-20T19:24:34.288Z,99795.22
2023-04-20T19:27:02.232Z,99800.59
2023-04-20T19:29:30.044Z,99800.34
2023-04-20T19:31:57.478Z,99803.22
2023-04-20T19:34:24.955Z,99797.88
2023-04-20T19:36:53.754Z,99797.31
2023-04-20T19:39:21.166Z,99802.63
2023-04-20T19:41:48.991Z,99806.31
2023-04-20T19:44:17.674Z,99809.97
2023-04-20T19:46:45.514Z,99804.72
2023-04-20T19:49:13.070Z,99810.00
2023-04-20T19:51:40.832Z,99816.31
2023-04-20T19:54:08.258Z,99814.00
2023-04-20T19:56:37.066Z,99811.72
2023-04-20T19:59:04.795Z,99817.00
2023-04-20T20:01:32.411Z,99820.59
2023-04-20T20:04:00.265Z,99818.91
2023-04-20T20:06:28.406Z,99816.59
2023-04-20T20:08:55.851Z,99820.34
2023-04-20T20:11:25.239Z,99832.75
2023-04-20T20:13:52.619Z,99829.06
2023-04-20T20:16:20.354Z,99825.06
2023-04-20T20:18:48.567Z,99820.91
2023-04-20T20:21:15.905Z,99818.94
2023-04-20T20:23:43.328Z,99825.25
2023-04-20T20:26:11.021Z,99827.16
2023-04-20T20:28:38.459Z,99831.72
2023-04-20T20:31:05.953Z,99830.09
2023-04-20T20:33:33.705Z,99829.38
2023-04-20T20:36:02.789Z,99834.75
2023-04-20T20:38:31.110Z,99827.97
2023-04-20T20:40:58.850Z,99831.47
2023-04-20T20:43:26.361Z,99834.59
2023-04-20T20:45:53.851Z,99826.53
2023-04-20T20:48:21.577Z,99835.53
2023-04-20T20:50:48.947Z,99840.16
2023-04-20T20:53:17.589Z,99838.53
2023-04-20T20:55:45.515Z,99837.88
2023-04-20T20:58:12.990Z,99843.34
2023-04-20T21:00:40.582Z,99849.00
2023-04-20T21:03:08.471Z,99847.97
2023-04-20T21:05:36.022Z,99838.09
2023-04-20T21:08:03.468Z,99840.72
2023-04-20T21:10:31.290Z,99845.41
2023-04-20T21:12:58.903Z,99844.34
2023-04-20T21:15:26.520Z,99842.16
2023-04-20T21:17:54.205Z,99840.53
2023-04-20T21:20:21.694Z,99849.59
2023-04-20T21:22:49.113Z,99845.34
2023-04-20T21:25:16.839Z,99853.16
2023-04-20T21:27:44.272Z,99855.28
2023-04-20T21:30:12.353Z,99851.78
2023-04-20T21:32:40.197Z,99855.75
2023-04-20T21:35:07.925Z,99858.59
2023-04-20T21:37:35.979Z,99855.41
2023-04-20T21:40:03.991Z,99855.94
2023-04-20T21:42:31.468Z,99857.38
2023-04-20T21:44:59.015Z,99861.19
2023-04-20T21:47:26.701Z,99862.19
2023-04-20T21:49:54.188Z,99859.91
2023-04-20T21:52:21.652Z,99860.88
2023-04-20T21:54:49.291Z,99858.56
2023-04-20T21:57:16.992Z,99863.63
2023-04-20T21:59:44.355Z,99867.91
2023-04-20T22:02:12.108Z,99854.19
2023-04-20T22:04:41.281Z,99854.34
2023-04-20T22:07:09.835Z,99859.91
2023-04-20T22:09:37.227Z,99861.09
2023-04-20T22:12:05.307Z,99858.69
2023-04-20T22:14:32.984Z,99858.09
2023-04-20T22:17:01.704Z,99851.03
2023-04-20T22:19:29.361Z,99849.47
2023-04-20T22:21:56.769Z,99851.63
2023-04-20T22:24:24.339Z,99849.72
2023-04-20T22:26:51.971Z,99843.88
2023-04-20T22:29:19.877Z,99854.91
2023-04-20T22:31:47.541Z,99849.91
2023-04-20T22:34:15.886Z,99851.78
2023-04-20T22:36:43.308Z,99852.88
2023-04-20T22:39:10.764Z,99853.69
2023-04-20T22:41:38.455Z,99851.34
2023-04-20T22:44:06.229Z,99854.94
2023-04-20T22:46:33.955Z,99844.44
2023-04-20T22:49:01.636Z,99846.44
2023-04-20T22:51:29.133Z,99846.53
2023-04-20T22:53:56.853Z,99847.31
2023-04-20T22:56:24.641Z,99843.16
2023-04-20T22:58:52.065Z,99849.50
2023-04-20T23:01:19.524Z,99848.78
2023-04-20T23:03:47.368Z,99851.34
2023-04-20T23:06:18.804Z,99845.66
2023-04-20T23:08:46.896Z,99849.44
2023-04-20T23:11:16.375Z,99856.47
2023-04-20T23:13:44.300Z,99858.16
2023-04-20T23:16:12.233Z,99851.13
2023-04-20T23:18:39.604Z,99852.84
2023-04-20T23:21:06.953Z,99850.22
2023-04-20T23:23:34.623Z,99852.97
2023-04-20T23:26:01.969Z,99852.97
2023-04-20T23:28:29.435Z,99853.09
2023-04-20T23:30:57.189Z,99855.66
2023-04-20T23:33:24.640Z,99853.84
2023-04-20T23:35:52.098Z,99847.03
2023-04-20T23:38:19.753Z,99853.06
2023-04-20T23:40:47.210Z,99853.19
2023-04-20T23:43:14.900Z,99853.31
2023-04-20T23:45:42.568Z,99854.84
2023-04-20T23:48:10.088Z,99847.03
2023-04-20T23:50:37.547Z,99852.34
2023-04-20T23:53:05.727Z,99847.44
2023-04-20T23:55:33.106Z,99844.78
2023-04-20T23:58:00.474Z,99844.19
